createdAt,value
2022-11-20T00:01:59.793Z,-6.37
2022-11-20T00:06:05.251Z,-6.33
2022-11-20T00:10:08.943Z,-6.34
2022-11-20T00:14:12.378Z,-6.37
2022-11-20T00:18:15.743Z,-6.40
2022-11-20T00:22:19.004Z,-6.46
2022-11-20T00:26:23.950Z,-6.52
2022-11-20T00:30:27.557Z,-6.58
2022-11-20T00:34:31.026Z,-6.63
2022-11-20T00:38:35.073Z,-6.65
2022-11-20T00:42:38.423Z,-6.65
2022-11-20T00:46:41.847Z,-6.70
2022-11-20T00:50:45.160Z,-6.71
2022-11-20T00:54:48.498Z,-6.70
2022-11-20T00:58:51.827Z,-6.64
2022-11-20T01:02:57.103Z,-6.65
2022-11-20T01:07:00.431Z,-6.67
2022-11-20T01:11:09.509Z,-6.62
2022-11-20T01:15:12.842Z,-6.53
2022-11-20T01:19:21.305Z,-6.47
2022-11-20T01:23:24.833Z,-6.42
2022-11-20T01:27:28.256Z,-6.35
2022-11-20T01:31:34.808Z,-6.33
2022-11-20T01:35:38.175Z,-6.35
2022-11-20T01:39:41.562Z,-6.36
2022-11-20T01:43:44.874Z,-6.37
2022-11-20T01:47:48.183Z,-6.37
2022-11-20T01:51:58.545Z,-6.41
2022-11-20T01:56:06.827Z,-6.55
2022-11-20T02:00:14.628Z,-6.67
2022-11-20T02:04:18.107Z,-6.72
2022-11-20T02:08:23.190Z,-6.74
2022-11-20T02:12:45.153Z,-6.66
2022-11-20T02:16:50.714Z,-6.59
2022-11-20T02:21:22.759Z,-6.56
2022-11-20T02:25:28.351Z,-6.52
2022-11-20T02:29:40.715Z,-6.51
2022-11-20T02:33:44.021Z,-6.54
2022-11-20T02:37:54.368Z,-6.55
2022-11-20T02:41:58.487Z,-6.52
2022-11-20T02:46:01.888Z,-6.59
2022-11-20T02:50:06.308Z,-6.67
2022-11-20T02:54:09.618Z,-6.64
2022-11-20T02:58:12.966Z,-6.59
2022-11-20T03:02:16.324Z,-6.59
2022-11-20T03:06:19.650Z,-6.63
2022-11-20T03:10:22.990Z,-6.65
2022-11-20T03:14:26.348Z,-6.66
2022-11-20T03:18:30.192Z,-6.68
2022-11-20T03:22:33.491Z,-6.69
2022-11-20T03:26:36.878Z,-6.63
2022-11-20T03:30:40.199Z,-6.56
2022-11-20T03:34:43.580Z,-6.55
2022-11-20T03:38:47.700Z,-6.59
2022-11-20T03:42:51.069Z,-6.64
2022-11-20T03:46:54.373Z,-6.77
2022-11-20T03:51:17.917Z,-6.76
2022-11-20T03:55:21.260Z,-6.70
2022-11-20T03:59:24.527Z,-6.65
2022-11-20T04:03:27.861Z,-6.65
2022-11-20T04:07:31.163Z,-6.62
2022-11-20T04:11:37.705Z,-6.58
2022-11-20T04:15:41.039Z,-6.57
2022-11-20T04:19:44.312Z,-6.57
2022-11-20T04:23:47.627Z,-6.63
2022-11-20T04:27:50.962Z,-6.65
2022-11-20T04:31:54.290Z,-6.56
2022-11-20T04:36:02.898Z,-6.51
2022-11-20T04:40:06.820Z,-6.47
2022-11-20T04:44:10.294Z,-6.42
2022-11-20T04:48:13.601Z,-6.39
2022-11-20T04:52:16.874Z,-6.41
2022-11-20T04:56:20.260Z,-6.44
2022-11-20T05:00:23.622Z,-6.46
2022-11-20T05:04:27.457Z,-6.44
2022-11-20T05:08:31.923Z,-6.40
2022-11-20T05:12:35.812Z,-6.37
2022-11-20T05:16:39.233Z,-6.33
2022-11-20T05:20:42.615Z,-6.34
2022-11-20T05:24:45.872Z,-6.46
2022-11-20T05:28:50.382Z,-6.50
2022-11-20T05:32:53.710Z,-6.46
2022-11-20T05:36:57.024Z,-6.41
2022-11-20T05:41:12.801Z,-6.40
2022-11-20T05:45:16.209Z,-6.38
2022-11-20T05:49:19.766Z,-6.40
2022-11-20T05:53:24.762Z,-6.56
2022-11-20T05:57:29.801Z,-6.58
2022-11-20T06:01:33.107Z,-6.52
2022-11-20T06:05:36.386Z,-6.50
2022-11-20T06:09:39.728Z,-6.46
2022-11-20T06:13:43.779Z,-6.43
2022-11-20T06:17:47.083Z,-6.43
2022-11-20T06:21:53.206Z,-6.40
2022-11-20T06:25:56.515Z,-6.38
2022-11-20T06:29:59.789Z,-6.50
2022-11-20T06:34:03.184Z,-6.55
2022-11-20T06:38:06.591Z,-6.43
2022-11-20T06:42:09.940Z,-6.36
2022-11-20T06:46:16.105Z,-6.35
2022-11-20T06:50:19.478Z,-6.33
2022-11-20T06:54:22.790Z,-6.27
2022-11-20T06:58:29.445Z,-6.18
2022-11-20T07:02:32.883Z,-6.07
2022-11-20T07:06:36.377Z,-5.98
2022-11-20T07:10:39.952Z,-5.93
2022-11-20T07:14:43.484Z,-5.86
2022-11-20T07:18:50.538Z,-5.91
2022-11-20T07:22:57.252Z,-6.06
2022-11-20T07:27:00.626Z,-6.11
2022-11-20T07:31:04.344Z,-6.10
2022-11-20T07:35:07.911Z,-6.07
2022-11-20T07:39:11.210Z,-6.00
2022-11-20T07:43:14.511Z,-5.87
2022-11-20T07:47:19.164Z,-5.71
2022-11-20T07:51:22.487Z,-5.49
2022-11-20T07:55:25.957Z,-5.22
2022-11-20T07:59:29.356Z,-4.94
2022-11-20T08:03:33.097Z,-4.68
2022-11-20T08:07:44.945Z,-4.46
2022-11-20T08:12:07.132Z,-4.25
2022-11-20T08:16:10.494Z,-4.10
2022-11-20T08:20:14.137Z,-3.98
2022-11-20T08:24:17.422Z,-3.88
2022-11-20T08:28:22.131Z,-3.77
2022-11-20T08:32:25.924Z,-3.66
2022-11-20T08:36:29.619Z,-3.49
2022-11-20T08:40:33.599Z,-3.28
2022-11-20T08:44:36.923Z,-3.09
2022-11-20T08:48:40.251Z,-2.91
2022-11-20T08:52:44.370Z,-2.73
2022-11-20T08:56:47.669Z,-2.59
2022-11-20T09:00:51.111Z,-2.47
2022-11-20T09:04:57.321Z,-2.37
2022-11-20T09:09:06.118Z,-2.31
2022-11-20T09:13:10.219Z,-2.23
2022-11-20T09:17:16.539Z,-2.06
2022-11-20T09:21:19.942Z,-1.93
2022-11-20T09:25:23.543Z,-1.89
2022-11-20T09:29:26.862Z,-1.90
2022-11-20T09:33:30.176Z,-1.92
2022-11-20T09:37:33.525Z,-1.91
2022-11-20T09:41:55.323Z,-1.83
2022-11-20T09:46:30.473Z,-1.73
2022-11-20T09:50:44.956Z,-1.67
2022-11-20T09:54:48.455Z,-1.61
2022-11-20T09:58:54.870Z,-1.60
2022-11-20T10:03:24.250Z,-1.60
2022-11-20T10:07:33.808Z,-1.52
2022-11-20T10:12:05.252Z,-1.39
2022-11-20T10:16:29.839Z,-1.27
2022-11-20T10:20:58.504Z,-1.20
2022-11-20T10:25:09.236Z,-1.13
2022-11-20T10:29:16.963Z,-1.11
2022-11-20T10:33:29.116Z,-1.02
2022-11-20T10:37:44.213Z,-0.88
2022-11-20T10:41:52.511Z,-0.77
2022-11-20T10:46:09.955Z,-0.75
2022-11-20T10:50:22.948Z,-0.70
2022-11-20T10:54:35.532Z,-0.63
2022-11-20T10:59:28.057Z,-0.59
2022-11-20T11:03:33.004Z,-0.53
2022-11-20T11:07:39.998Z,-0.52
2022-11-20T11:11:43.487Z,-0.51
2022-11-20T11:15:46.919Z,-0.50
2022-11-20T11:20:08.135Z,-0.46
2022-11-20T11:24:41.582Z,-0.51
2022-11-20T11:29:00.686Z,-0.57
2022-11-20T11:33:11.464Z,-0.64
2022-11-20T11:37:23.174Z,-0.69
2022-11-20T11:41:32.775Z,-0.77
2022-11-20T11:45:37.463Z,-0.84
2022-11-20T11:49:41.550Z,-0.87
2022-11-20T11:53:44.994Z,-0.87
2022-11-20T11:57:55.478Z,-0.87
2022-11-20T12:02:04.293Z,-0.83
2022-11-20T12:06:12.833Z,-0.75
2022-11-20T12:10:38.071Z,-0.75
2022-11-20T12:14:52.299Z,-0.83
2022-11-20T12:18:55.799Z,-0.87
2022-11-20T12:23:29.881Z,-0.89
2022-11-20T12:28:01.167Z,-0.92
2022-11-20T12:32:16.776Z,-0.97
2022-11-20T12:36:39.605Z,-1.03
2022-11-20T12:40:43.013Z,-1.14
2022-11-20T12:45:21.510Z,-1.19
2022-11-20T12:49:50.655Z,-1.21
2022-11-20T12:54:24.648Z,-1.25
2022-11-20T12:58:50.307Z,-1.25
2022-11-20T13:02:56.509Z,-1.28
2022-11-20T13:07:01.956Z,-1.26
2022-11-20T13:11:36.453Z,-1.20
2022-11-20T13:15:53.219Z,-1.17
2022-11-20T13:19:59.966Z,-1.20
2022-11-20T13:24:28.084Z,-1.25
2022-11-20T13:28:32.084Z,-1.32
2022-11-20T13:32:35.461Z,-1.40
2022-11-20T13:36:51.404Z,-1.42
2022-11-20T13:40:56.835Z,-1.43
2022-11-20T13:45:10.187Z,-1.44
2022-11-20T13:49:45.954Z,-1.50
2022-11-20T13:53:49.227Z,-1.57
2022-11-20T13:58:22.462Z,-1.63
2022-11-20T14:02:29.219Z,-1.64
2022-11-20T14:06:39.996Z,-1.62
2022-11-20T14:10:43.406Z,-1.63
2022-11-20T14:14:55.687Z,-1.65
2022-11-20T14:19:18.625Z,-1.70
2022-11-20T14:23:30.598Z,-1.76
2022-11-20T14:27:40.155Z,-1.78
2022-11-20T14:31:47.877Z,-1.77
2022-11-20T15:11:20.868Z,-1.66
2022-11-20T15:15:36.245Z,-1.66
2022-11-20T15:19:39.545Z,-1.70
2022-11-20T15:23:43.886Z,-1.76
2022-11-20T15:27:50.648Z,-1.84
2022-11-20T15:31:55.458Z,-1.91
2022-11-20T15:35:58.800Z,-1.95
2022-11-20T15:40:02.128Z,-1.97
2022-11-20T15:44:06.355Z,-1.96
2022-11-20T15:48:16.326Z,-1.98
2022-11-20T15:52:19.636Z,-2.02
2022-11-20T15:56:23.772Z,-2.08
2022-11-20T16:00:27.115Z,-2.17
2022-11-20T16:04:31.071Z,-2.26
2022-11-20T16:08:34.964Z,-2.36
2022-11-20T16:12:57.119Z,-2.44
2022-11-20T16:17:00.476Z,-2.48
2022-11-20T16:21:04.543Z,-2.52
2022-11-20T16:25:08.337Z,-2.58
2022-11-20T16:29:11.993Z,-2.66
2022-11-20T16:33:18.432Z,-2.77
2022-11-20T16:37:22.587Z,-2.89
2022-11-20T16:41:27.593Z,-2.96
2022-11-20T16:45:33.846Z,-3.00
2022-11-20T16:49:37.696Z,-3.01
2022-11-20T16:53:41.808Z,-3.01
2022-11-20T16:57:45.321Z,-3.06
2022-11-20T17:01:49.091Z,-3.14
2022-11-20T17:05:52.649Z,-3.21
2022-11-20T17:09:56.231Z,-3.28
2022-11-20T17:14:03.859Z,-3.32
2022-11-20T17:18:07.333Z,-3.33
2022-11-20T17:22:10.695Z,-3.31
2022-11-20T17:26:22.036Z,-3.33
2022-11-20T17:30:25.419Z,-3.34
2022-11-20T17:34:28.989Z,-3.38
2022-11-20T17:38:32.778Z,-3.45
2022-11-20T17:42:37.155Z,-3.47
2022-11-20T17:46:41.045Z,-3.47
2022-11-20T17:50:44.426Z,-3.45
2022-11-20T17:54:47.709Z,-3.45
2022-11-20T17:58:51.792Z,-3.48
2022-11-20T18:02:56.107Z,-3.54
2022-11-20T18:06:59.507Z,-3.64
2022-11-20T18:11:13.950Z,-3.77
2022-11-20T18:15:17.505Z,-3.97
2022-11-20T18:19:23.934Z,-4.14
2022-11-20T18:23:27.406Z,-4.20
2022-11-20T18:27:32.076Z,-4.18
2022-11-20T18:31:35.455Z,-4.18
2022-11-20T18:35:43.120Z,-4.22
2022-11-20T18:39:46.718Z,-4.27
2022-11-20T18:44:08.539Z,-4.35
2022-11-20T18:48:11.950Z,-4.49
2022-11-20T18:52:15.389Z,-4.62
2022-11-20T18:56:18.888Z,-4.72
2022-11-20T19:00:24.569Z,-4.77
2022-11-20T19:04:28.402Z,-4.75
2022-11-20T19:08:35.247Z,-4.66
2022-11-20T19:12:38.793Z,-4.56
2022-11-20T19:16:43.633Z,-4.47
2022-11-20T19:20:47.071Z,-4.41
2022-11-20T19:24:50.556Z,-4.39
2022-11-20T19:28:54.564Z,-4.33
2022-11-20T19:32:58.316Z,-4.25
2022-11-20T19:37:01.803Z,-4.15
2022-11-20T19:41:06.442Z,-4.00
2022-11-20T19:45:11.006Z,-3.83
2022-11-20T19:49:15.546Z,-3.64
2022-11-20T19:53:19.015Z,-3.46
2022-11-20T19:57:22.594Z,-3.32
2022-11-20T20:01:29.165Z,-3.21
2022-11-20T20:05:34.514Z,-3.12
2022-11-20T20:09:37.907Z,-3.07
2022-11-20T20:13:43.470Z,-3.03
2022-11-20T20:17:46.918Z,-2.96
2022-11-20T20:21:50.404Z,-2.89
2022-11-20T20:25:54.016Z,-2.81
2022-11-20T20:29:57.322Z,-2.73
2022-11-20T20:34:03.548Z,-2.67
2022-11-20T20:38:06.932Z,-2.68
2022-11-20T20:42:10.348Z,-2.70
2022-11-20T20:46:13.919Z,-2.67
2022-11-20T20:50:17.511Z,-2.63
2022-11-20T20:54:20.827Z,-2.61
2022-11-20T20:58:25.356Z,-2.64
2022-11-20T21:02:28.734Z,-2.68
2022-11-20T21:06:32.092Z,-2.70
2022-11-20T21:10:35.561Z,-2.74
2022-11-20T21:14:39.056Z,-2.77
2022-11-20T21:18:42.449Z,-2.79
2022-11-20T21:22:45.785Z,-2.81
2022-11-20T21:26:52.648Z,-2.83
2022-11-20T21:31:06.814Z,-2.86
2022-11-20T21:35:10.449Z,-2.95
2022-11-20T21:39:14.889Z,-2.99
2022-11-20T21:43:18.991Z,-2.99
2022-11-20T21:47:22.309Z,-2.96
2022-11-20T21:51:28.179Z,-2.93
2022-11-20T21:55:32.761Z,-2.91
2022-11-20T21:59:36.137Z,-2.90
2022-11-20T22:03:40.366Z,-2.86
2022-11-20T22:07:45.212Z,-2.79
2022-11-20T22:11:48.523Z,-2.75
2022-11-20T22:16:00.754Z,-2.76
2022-11-20T22:20:05.019Z,-2.76
2022-11-20T22:24:19.716Z,-2.77
2022-11-20T22:28:22.991Z,-2.78
2022-11-20T22:32:26.409Z,-2.74
2022-11-20T22:36:31.244Z,-2.69
2022-11-20T22:40:34.600Z,-2.62
2022-11-20T22:44:37.875Z,-2.56
2022-11-20T22:48:44.526Z,-2.53
2022-11-20T22:52:47.885Z,-2.52
2022-11-20T22:56:51.230Z,-2.52
2022-11-20T23:00:54.506Z,-2.50
2022-11-20T23:04:57.904Z,-2.46
2022-11-20T23:09:01.616Z,-2.41
2022-11-20T23:13:05.003Z,-2.35
2022-11-20T23:17:08.296Z,-2.31
2022-11-20T23:21:17.405Z,-2.30
2022-11-20T23:25:20.680Z,-2.26
2022-11-20T23:29:24.092Z,-2.20
2022-11-20T23:33:27.913Z,-2.14
2022-11-20T23:37:31.262Z,-2.06
2022-11-20T23:41:34.977Z,-2.03
2022-11-20T23:45:40.086Z,-2.02
2022-11-20T23:49:43.411Z,-2.01
2022-11-20T23:53:46.733Z,-1.98
2022-11-20T23:57:53.192Z,-1.93
